createdAt,value
2022-08-26T00:00:43.496Z,961.90
2022-08-26T00:01:44.128Z,961.90
2022-08-26T00:02:43.415Z,961.89
2022-08-26T00:03:43.417Z,961.86
2022-08-26T00:04:43.336Z,961.87
2022-08-26T00:05:43.838Z,961.85
2022-08-26T00:06:46.151Z,961.87
2022-08-26T00:07:43.373Z,961.85
2022-08-26T00:08:43.176Z,961.84
2022-08-26T00:09:47.337Z,961.81
2022-08-26T00:10:43.092Z,961.81
2022-08-26T00:11:43.057Z,961.80
2022-08-26T00:12:43.017Z,961.83
2022-08-26T00:13:47.989Z,961.80
2022-08-26T00:14:42.936Z,961.80
2022-08-26T00:15:42.913Z,961.82
2022-08-26T00:16:48.146Z,961.81
2022-08-26T00:17:42.813Z,961.79
2022-08-26T00:18:42.776Z,961.79
2022-08-26T00:19:42.732Z,961.75
2022-08-26T00:20:42.696Z,961.74
2022-08-26T00:21:42.662Z,961.75
2022-08-26T00:22:42.617Z,961.79
2022-08-26T00:23:42.574Z,961.75
2022-08-26T00:24:47.847Z,961.74
2022-08-26T00:25:42.707Z,961.78
2022-08-26T00:26:42.463Z,961.74
2022-08-26T00:27:42.410Z,961.70
2022-08-26T00:28:42.403Z,961.76
2022-08-26T00:29:42.335Z,961.77
2022-08-26T00:30:42.307Z,961.75
2022-08-26T00:31:42.335Z,961.76
2022-08-26T00:32:44.089Z,961.72
2022-08-26T00:33:42.168Z,961.75
2022-08-26T00:34:42.135Z,961.75
2022-08-26T00:35:43.826Z,961.73
2022-08-26T00:36:42.052Z,961.75
2022-08-26T00:37:42.011Z,961.75
2022-08-26T00:38:41.977Z,961.74
2022-08-26T00:39:41.926Z,961.75
2022-08-26T00:40:41.917Z,961.75
2022-08-26T00:41:41.855Z,961.76
2022-08-26T00:42:46.013Z,961.74
2022-08-26T00:43:47.113Z,961.76
2022-08-26T00:44:41.733Z,961.75
2022-08-26T00:45:41.719Z,961.76
2022-08-26T00:46:46.795Z,961.79
2022-08-26T00:47:41.609Z,961.79
2022-08-26T00:48:41.570Z,961.76
2022-08-26T00:49:41.539Z,961.80
2022-08-26T00:50:41.491Z,961.79
2022-08-26T00:51:41.446Z,961.78
2022-08-26T00:52:41.418Z,961.77
2022-08-26T00:53:41.570Z,961.79
2022-08-26T00:54:42.386Z,961.80
2022-08-26T00:55:41.286Z,961.78
2022-08-26T00:56:41.243Z,961.83
2022-08-26T00:57:41.319Z,961.81
2022-08-26T00:58:41.166Z,961.79
2022-08-26T00:59:41.130Z,961.81
2022-08-26T01:00:41.129Z,961.82
2022-08-26T01:01:41.047Z,961.84
2022-08-26T01:02:41.041Z,961.86
2022-08-26T01:03:40.990Z,961.85
2022-08-26T01:04:40.921Z,961.85
2022-08-26T01:05:40.884Z,961.88
2022-08-26T01:06:40.847Z,961.87
2022-08-26T01:07:40.811Z,961.88
2022-08-26T01:08:40.765Z,961.86
2022-08-26T01:09:40.731Z,961.88
2022-08-26T01:10:40.699Z,961.85
2022-08-26T01:11:40.638Z,961.88
2022-08-26T01:12:40.629Z,961.88
2022-08-26T01:13:40.566Z,961.87
2022-08-26T01:14:40.526Z,961.86
2022-08-26T01:15:40.481Z,961.89
2022-08-26T01:16:40.480Z,961.90
2022-08-26T01:17:48.690Z,961.91
2022-08-26T01:18:40.565Z,961.90
2022-08-26T01:19:40.409Z,961.92
2022-08-26T01:20:41.394Z,961.91
2022-08-26T01:21:40.546Z,961.95
2022-08-26T01:22:40.213Z,961.95
2022-08-26T01:23:40.202Z,961.93
2022-08-26T01:24:40.186Z,961.88
2022-08-26T01:25:40.091Z,961.94
2022-08-26T01:26:40.203Z,961.88
2022-08-26T01:27:39.996Z,961.87
2022-08-26T01:28:39.962Z,961.87
2022-08-26T01:29:40.230Z,961.90
2022-08-26T01:30:49.419Z,961.89
2022-08-26T01:31:39.901Z,961.91
2022-08-26T01:32:39.791Z,961.88
2022-08-26T01:33:42.439Z,961.85
2022-08-26T01:34:39.714Z,961.87
2022-08-26T01:35:39.692Z,961.85
2022-08-26T01:36:39.626Z,961.81
2022-08-26T01:37:40.481Z,961.83
2022-08-26T01:38:39.553Z,961.81
2022-08-26T01:39:39.507Z,961.80
2022-08-26T01:40:39.467Z,961.78
2022-08-26T01:41:39.441Z,961.78
2022-08-26T01:42:39.388Z,961.79
2022-08-26T01:43:39.351Z,961.76
2022-08-26T01:44:39.310Z,961.77
2022-08-26T01:45:39.300Z,961.79
2022-08-26T01:46:39.233Z,961.76
2022-08-26T01:47:39.188Z,961.76
2022-08-26T01:48:39.145Z,961.80
2022-08-26T01:49:39.102Z,961.78
2022-08-26T01:50:39.059Z,961.80
2022-08-26T01:51:39.048Z,961.83
2022-08-26T01:52:38.983Z,961.82
2022-08-26T01:53:38.942Z,961.83
2022-08-26T01:54:38.903Z,961.86
2022-08-26T01:55:38.864Z,961.83
2022-08-26T01:56:38.818Z,961.82
2022-08-26T01:57:38.943Z,961.80
2022-08-26T01:58:38.747Z,961.87
2022-08-26T01:59:38.698Z,961.81
2022-08-26T02:00:38.696Z,961.85
2022-08-26T02:01:38.616Z,961.84
2022-08-26T02:02:38.575Z,961.84
2022-08-26T02:03:38.681Z,961.82
2022-08-26T02:04:38.536Z,961.82
2022-08-26T02:05:38.457Z,961.88
2022-08-26T02:06:38.411Z,961.83
2022-08-26T02:07:38.370Z,961.84
2022-08-26T02:08:38.344Z,961.92
2022-08-26T02:09:38.426Z,961.89
2022-08-26T02:10:38.251Z,961.85
2022-08-26T02:11:38.238Z,961.90
2022-08-26T02:12:38.178Z,961.90
2022-08-26T02:13:38.129Z,961.89
2022-08-26T02:14:42.330Z,961.90
2022-08-26T02:15:38.049Z,961.95
2022-08-26T02:16:38.071Z,961.93
2022-08-26T02:17:37.997Z,961.91
2022-08-26T02:18:37.933Z,961.96
2022-08-26T02:19:37.900Z,961.95
2022-08-26T02:20:37.848Z,961.97
2022-08-26T02:21:37.809Z,961.98
2022-08-26T02:22:37.767Z,962.02
2022-08-26T02:23:37.752Z,962.02
2022-08-26T02:24:37.682Z,962.02
2022-08-26T02:25:37.645Z,962.05
2022-08-26T02:26:37.607Z,962.03
2022-08-26T02:27:37.562Z,962.05
2022-08-26T02:28:37.523Z,962.07
2022-08-26T02:29:37.493Z,962.08
2022-08-26T02:30:37.435Z,962.09
2022-08-26T02:31:37.439Z,962.05
2022-08-26T02:32:37.361Z,962.06
2022-08-26T02:33:37.311Z,962.06
2022-08-26T02:34:37.281Z,962.07
2022-08-26T02:35:37.255Z,962.04
2022-08-26T02:36:37.195Z,962.04
2022-08-26T02:37:37.171Z,962.04
2022-08-26T02:38:37.120Z,962.02
2022-08-26T02:39:37.071Z,962.03
2022-08-26T02:40:37.033Z,962.04
2022-08-26T02:41:40.264Z,962.04
2022-08-26T02:42:36.957Z,962.02
2022-08-26T02:43:36.928Z,962.00
2022-08-26T02:44:36.868Z,962.02
2022-08-26T02:45:36.830Z,962.01
2022-08-26T02:46:36.813Z,961.95
2022-08-26T02:47:36.743Z,961.97
2022-08-26T02:48:36.702Z,961.95
2022-08-26T02:49:36.687Z,961.99
2022-08-26T02:50:36.625Z,962.00
2022-08-26T02:51:36.585Z,962.01
2022-08-26T02:52:36.542Z,961.99
2022-08-26T02:53:36.503Z,962.00
2022-08-26T02:54:36.463Z,961.98
2022-08-26T02:55:36.442Z,961.97
2022-08-26T02:56:36.386Z,961.97
2022-08-26T02:57:36.339Z,961.96
2022-08-26T02:58:36.297Z,961.92
2022-08-26T02:59:36.262Z,961.95
2022-08-26T03:00:36.296Z,961.94
2022-08-26T03:01:36.258Z,961.88
2022-08-26T03:02:36.137Z,961.89
2022-08-26T03:03:36.094Z,961.85
2022-08-26T03:04:36.048Z,961.85
2022-08-26T03:05:36.018Z,961.86
2022-08-26T03:06:35.967Z,961.89
2022-08-26T03:07:35.940Z,961.85
2022-08-26T03:08:35.885Z,961.85
2022-08-26T03:09:35.846Z,961.84
2022-08-26T03:10:35.805Z,961.85
2022-08-26T03:11:35.762Z,961.84
2022-08-26T03:12:35.741Z,961.85
2022-08-26T03:13:35.681Z,961.86
2022-08-26T03:14:35.641Z,961.87
2022-08-26T03:15:35.599Z,961.87
2022-08-26T03:16:35.659Z,961.87
2022-08-26T03:17:35.518Z,961.86
2022-08-26T03:18:35.499Z,961.88
2022-08-26T03:19:35.436Z,961.85
2022-08-26T03:20:36.043Z,961.83
2022-08-26T03:21:35.355Z,961.88
2022-08-26T03:22:35.315Z,961.82
2022-08-26T03:23:36.045Z,961.84
2022-08-26T03:24:36.383Z,961.82
2022-08-26T03:25:36.055Z,961.83
2022-08-26T03:26:36.102Z,961.81
2022-08-26T03:27:35.109Z,961.83
2022-08-26T03:28:35.069Z,961.81
2022-08-26T03:29:35.044Z,961.78
2022-08-26T03:30:34.983Z,961.82
2022-08-26T03:31:35.033Z,961.82
2022-08-26T03:32:34.904Z,961.80
2022-08-26T03:33:34.869Z,961.79
2022-08-26T03:34:34.820Z,961.84
2022-08-26T03:35:34.803Z,961.84
2022-08-26T03:36:35.039Z,961.79
2022-08-26T03:37:34.694Z,961.80
2022-08-26T03:38:34.657Z,961.77
2022-08-26T03:39:34.617Z,961.78
2022-08-26T03:40:34.603Z,961.81
2022-08-26T03:41:34.558Z,961.75
2022-08-26T03:42:34.492Z,961.78
2022-08-26T03:43:34.504Z,961.77
2022-08-26T03:44:34.411Z,961.76
2022-08-26T03:45:34.371Z,961.79
2022-08-26T03:46:34.363Z,961.80
2022-08-26T03:47:34.307Z,961.80
2022-08-26T03:48:34.249Z,961.79
2022-08-26T03:49:34.208Z,961.80
2022-08-26T03:50:35.693Z,961.80
2022-08-26T03:51:34.123Z,961.85
2022-08-26T03:52:34.085Z,961.86
2022-08-26T03:53:34.060Z,961.85
2022-08-26T03:54:33.998Z,961.85
2022-08-26T03:55:33.961Z,961.83
2022-08-26T03:56:33.915Z,961.84
2022-08-26T03:57:33.876Z,961.81
2022-08-26T03:58:33.833Z,961.83
2022-08-26T03:59:33.815Z,961.82
2022-08-26T04:00:33.752Z,961.84
2022-08-26T04:01:33.755Z,961.88
2022-08-26T04:02:33.751Z,961.85
2022-08-26T04:03:34.161Z,961.86
2022-08-26T04:04:33.591Z,961.87
2022-08-26T04:05:34.448Z,961.85
2022-08-26T04:06:33.513Z,961.86
2022-08-26T04:07:34.451Z,961.86
2022-08-26T04:08:33.433Z,961.89
2022-08-26T04:09:35.162Z,961.86
2022-08-26T04:10:33.346Z,961.89
2022-08-26T04:11:34.176Z,961.88
2022-08-26T04:12:33.264Z,961.88
2022-08-26T04:13:33.228Z,961.86
2022-08-26T04:14:33.183Z,961.85
2022-08-26T04:15:33.171Z,961.86
2022-08-26T04:16:33.165Z,961.89
2022-08-26T04:17:33.106Z,961.87
2022-08-26T04:18:33.210Z,961.87
2022-08-26T04:19:32.972Z,961.88
2022-08-26T04:20:32.989Z,961.88
2022-08-26T04:21:32.895Z,961.88
2022-08-26T04:22:32.854Z,961.87
2022-08-26T04:23:32.813Z,961.89
2022-08-26T04:24:32.799Z,961.86
2022-08-26T04:25:32.737Z,961.87
2022-08-26T04:26:32.693Z,961.86
2022-08-26T04:27:32.649Z,961.83
2022-08-26T04:28:32.602Z,961.85
2022-08-26T04:29:32.566Z,961.84
2022-08-26T04:30:32.544Z,961.88
2022-08-26T04:31:32.521Z,961.87
2022-08-26T04:32:32.440Z,961.89
2022-08-26T04:33:33.216Z,961.91
2022-08-26T04:34:32.358Z,961.91
2022-08-26T04:35:32.322Z,961.87
2022-08-26T04:36:32.292Z,961.86
2022-08-26T04:37:32.576Z,961.87
2022-08-26T04:38:32.200Z,961.88
2022-08-26T04:39:32.154Z,961.85
2022-08-26T04:40:32.167Z,961.83
2022-08-26T04:41:32.066Z,961.84
2022-08-26T04:42:32.044Z,961.84
2022-08-26T04:43:32.000Z,961.86
2022-08-26T04:44:31.954Z,961.83
2022-08-26T04:45:31.908Z,961.84
2022-08-26T04:46:31.876Z,961.80
2022-08-26T04:47:32.515Z,961.80
2022-08-26T04:48:31.805Z,961.81
2022-08-26T04:49:35.600Z,961.81
2022-08-26T04:50:31.701Z,961.82
2022-08-26T04:51:31.662Z,961.84
2022-08-26T04:52:31.626Z,961.84
2022-08-26T04:53:31.584Z,961.88
2022-08-26T04:54:31.560Z,961.85
2022-08-26T04:55:39.885Z,961.88
2022-08-26T04:56:31.460Z,961.89
2022-08-26T04:57:31.412Z,961.90
2022-08-26T04:58:31.370Z,961.86
2022-08-26T04:59:32.593Z,961.85
2022-08-26T05:00:31.300Z,961.85
2022-08-26T05:01:31.284Z,961.88
2022-08-26T05:02:31.207Z,961.89
2022-08-26T05:03:31.229Z,961.92
2022-08-26T05:04:31.131Z,961.90
2022-08-26T05:05:31.097Z,961.90
2022-08-26T05:06:31.039Z,961.91
2022-08-26T05:07:30.999Z,961.91
2022-08-26T05:08:30.962Z,961.95
2022-08-26T05:09:30.919Z,961.94
2022-08-26T05:10:30.875Z,961.96
2022-08-26T05:11:30.857Z,961.99
2022-08-26T05:12:30.794Z,961.97
2022-08-26T05:13:30.754Z,961.99
2022-08-26T05:14:30.836Z,962.01
2022-08-26T05:15:30.691Z,961.99
2022-08-26T05:16:30.638Z,962.03
2022-08-26T05:17:30.587Z,962.01
2022-08-26T05:18:30.545Z,962.01
2022-08-26T05:19:30.616Z,961.99
2022-08-26T05:20:30.500Z,962.01
2022-08-26T05:21:30.454Z,961.99
2022-08-26T05:22:30.392Z,961.99
2022-08-26T05:23:30.363Z,961.95
2022-08-26T05:24:30.318Z,961.98
2022-08-26T05:25:30.256Z,962.01
2022-08-26T05:26:30.236Z,962.02
2022-08-26T05:27:30.187Z,962.03
2022-08-26T05:28:30.158Z,962.06
2022-08-26T05:29:30.093Z,962.08
2022-08-26T05:30:30.050Z,962.06
2022-08-26T05:31:30.145Z,962.06
2022-08-26T05:32:29.995Z,962.08
2022-08-26T05:33:29.931Z,962.09
2022-08-26T05:34:30.146Z,962.07
2022-08-26T05:35:29.844Z,962.11
2022-08-26T05:36:29.804Z,962.10
2022-08-26T05:37:29.782Z,962.07
2022-08-26T05:38:30.356Z,962.15
2022-08-26T05:39:29.682Z,962.07
2022-08-26T05:40:29.741Z,962.07
2022-08-26T05:41:34.332Z,962.11
2022-08-26T05:42:29.564Z,962.08
2022-08-26T05:43:29.520Z,962.14
2022-08-26T05:44:29.497Z,962.13
2022-08-26T05:45:29.435Z,962.13
2022-08-26T05:46:29.442Z,962.15
2022-08-26T05:47:29.357Z,962.12
2022-08-26T05:48:29.317Z,962.14
2022-08-26T05:49:29.280Z,962.15
2022-08-26T05:50:29.252Z,962.19
2022-08-26T05:51:30.357Z,962.19
2022-08-26T05:52:29.151Z,962.19
2022-08-26T05:53:29.118Z,962.20
2022-08-26T05:54:29.069Z,962.18
2022-08-26T05:55:29.210Z,962.22
2022-08-26T05:56:28.987Z,962.19
2022-08-26T05:57:28.949Z,962.23
2022-08-26T05:58:28.913Z,962.25
2022-08-26T05:59:28.861Z,962.28
2022-08-26T06:03:46.667Z,962.33
2022-08-26T06:04:46.440Z,962.35
2022-08-26T06:05:46.630Z,962.32
2022-08-26T06:06:46.355Z,962.35
2022-08-26T06:07:46.444Z,962.34
2022-08-26T06:08:46.266Z,962.33
2022-08-26T06:09:46.244Z,962.36
2022-08-26T06:10:46.309Z,962.33
2022-08-26T06:11:46.262Z,962.33
2022-08-26T06:12:46.105Z,962.33
2022-08-26T06:13:46.278Z,962.36
2022-08-26T06:14:46.067Z,962.39
2022-08-26T06:15:46.043Z,962.41
2022-08-26T06:16:46.096Z,962.39
2022-08-26T06:17:45.902Z,962.40
2022-08-26T06:18:46.112Z,962.41
2022-08-26T06:19:45.829Z,962.41
2022-08-26T06:20:57.857Z,962.38
2022-08-26T06:21:45.741Z,962.42
2022-08-26T06:22:46.139Z,962.43
2022-08-26T06:23:45.670Z,962.44
2022-08-26T06:24:45.744Z,962.43
2022-08-26T06:25:45.585Z,962.47
2022-08-26T06:26:46.676Z,962.45
2022-08-26T06:27:45.512Z,962.46
2022-08-26T06:28:45.805Z,962.47
2022-08-26T06:29:45.408Z,962.41
2022-08-26T06:30:45.509Z,962.45
2022-08-26T06:31:45.331Z,962.41
2022-08-26T06:32:45.291Z,962.44
2022-08-26T06:33:45.709Z,962.43
2022-08-26T06:34:45.219Z,962.42
2022-08-26T06:35:46.342Z,962.44
2022-08-26T06:36:45.133Z,962.48
2022-08-26T06:37:45.328Z,962.47
2022-08-26T06:38:45.055Z,962.49
2022-08-26T06:39:45.136Z,962.49
2022-08-26T06:40:44.965Z,962.50
2022-08-26T06:41:45.152Z,962.49
2022-08-26T06:42:44.897Z,962.45
2022-08-26T06:43:44.855Z,962.47
2022-08-26T06:44:44.910Z,962.43
2022-08-26T06:45:45.181Z,962.46
2022-08-26T06:46:44.816Z,962.46
2022-08-26T06:47:44.834Z,962.44
2022-08-26T06:48:44.654Z,962.48
2022-08-26T06:49:44.613Z,962.53
2022-08-26T06:50:44.806Z,962.50
2022-08-26T06:51:44.537Z,962.48
2022-08-26T06:52:45.848Z,962.51
2022-08-26T06:53:44.459Z,962.51
2022-08-26T06:54:44.633Z,962.49
2022-08-26T06:55:44.405Z,962.49
2022-08-26T06:56:44.443Z,962.45
2022-08-26T06:57:44.332Z,962.49
2022-08-26T06:58:44.459Z,962.52
2022-08-26T06:59:44.228Z,962.52
2022-08-26T07:00:47.525Z,962.53
2022-08-26T07:01:44.167Z,962.58
2022-08-26T07:02:46.869Z,962.57
2022-08-26T07:03:44.308Z,962.55
2022-08-26T07:04:44.028Z,962.55
2022-08-26T07:05:44.100Z,962.56
2022-08-26T07:06:45.140Z,962.54
2022-08-26T07:07:44.171Z,962.53
2022-08-26T07:08:44.153Z,962.54
2022-08-26T07:09:43.863Z,962.56
2022-08-26T07:10:43.937Z,962.55
2022-08-26T07:11:43.774Z,962.57
2022-08-26T07:12:43.720Z,962.62
2022-08-26T07:13:43.710Z,962.63
2022-08-26T07:14:47.441Z,962.63
2022-08-26T07:15:43.716Z,962.59
2022-08-26T07:16:43.790Z,962.65
2022-08-26T07:17:43.544Z,962.65
2022-08-26T07:18:44.776Z,962.65
2022-08-26T07:19:43.790Z,962.65
2022-08-26T07:20:43.454Z,962.66
2022-08-26T07:21:43.498Z,962.65
2022-08-26T07:22:43.354Z,962.66
2022-08-26T07:23:43.317Z,962.66
2022-08-26T07:24:43.421Z,962.64
2022-08-26T07:25:44.346Z,962.65
2022-08-26T07:26:43.291Z,962.70
2022-08-26T07:27:43.338Z,962.68
2022-08-26T07:28:43.119Z,962.69
2022-08-26T07:29:43.349Z,962.68
2022-08-26T07:30:43.093Z,962.70
2022-08-26T07:31:43.408Z,962.76
2022-08-26T07:32:42.964Z,962.74
2022-08-26T07:33:43.179Z,962.74
2022-08-26T07:34:43.180Z,962.72
2022-08-26T07:35:42.853Z,962.70
2022-08-26T07:36:44.062Z,962.72
2022-08-26T07:37:42.998Z,962.70
2022-08-26T07:38:43.006Z,962.72
2022-08-26T07:39:43.144Z,962.75
2022-08-26T07:40:42.666Z,962.70
2022-08-26T07:41:42.840Z,962.75
2022-08-26T07:42:42.624Z,962.75
2022-08-26T07:43:42.575Z,962.78
2022-08-26T07:44:42.639Z,962.79
2022-08-26T07:45:42.707Z,962.77
2022-08-26T07:46:42.449Z,962.74
2022-08-26T07:47:42.869Z,962.76
2022-08-26T07:48:46.061Z,962.75
2022-08-26T07:49:42.525Z,962.73
2022-08-26T07:50:50.128Z,962.76
2022-08-26T07:51:42.261Z,962.79
2022-08-26T07:52:43.319Z,962.78
2022-08-26T07:53:42.196Z,962.79
2022-08-26T07:54:42.503Z,962.82
2022-08-26T07:55:42.121Z,962.84
2022-08-26T07:56:44.274Z,962.86
2022-08-26T07:57:42.049Z,962.86
2022-08-26T07:58:44.954Z,962.83
2022-08-26T07:59:41.977Z,962.86
2022-08-26T08:00:41.951Z,962.83
2022-08-26T08:01:45.044Z,962.83
2022-08-26T08:02:42.053Z,962.81
2022-08-26T08:03:41.843Z,962.77
2022-08-26T08:04:42.107Z,962.76
2022-08-26T08:05:41.786Z,962.79
2022-08-26T08:06:43.940Z,962.75
2022-08-26T08:07:44.656Z,962.76
2022-08-26T08:08:41.645Z,962.76
2022-08-26T08:09:41.630Z,962.78
2022-08-26T08:10:41.709Z,962.76
2022-08-26T08:11:41.542Z,962.77
2022-08-26T08:12:41.724Z,962.78
2022-08-26T08:13:41.466Z,962.78
2022-08-26T08:14:41.448Z,962.79
2022-08-26T08:15:41.735Z,962.73
2022-08-26T08:16:45.933Z,962.74
2022-08-26T08:17:41.549Z,962.76
2022-08-26T08:18:41.294Z,962.72
2022-08-26T08:19:41.355Z,962.72
2022-08-26T08:20:44.698Z,962.75
2022-08-26T08:21:48.743Z,962.75
2022-08-26T08:22:41.155Z,962.73
2022-08-26T08:23:41.412Z,962.71
2022-08-26T08:24:41.082Z,962.72
2022-08-26T08:25:41.092Z,962.72
2022-08-26T08:26:41.024Z,962.70
2022-08-26T08:27:41.208Z,962.73
2022-08-26T08:28:40.944Z,962.72
2022-08-26T08:29:41.018Z,962.75
2022-08-26T08:30:40.911Z,962.72
2022-08-26T08:31:58.455Z,962.74
2022-08-26T08:32:40.809Z,962.75
2022-08-26T08:33:41.070Z,962.76
2022-08-26T08:35:40.873Z,962.74
2022-08-26T08:36:40.677Z,962.76
2022-08-26T08:37:52.161Z,962.75
2022-08-26T08:38:48.687Z,962.75
2022-08-26T08:39:49.547Z,962.73
2022-08-26T08:40:53.269Z,962.71
2022-08-26T08:41:48.806Z,962.74
2022-08-26T08:42:47.891Z,962.74
2022-08-26T08:44:01.385Z,962.76
2022-08-26T08:44:58.928Z,962.75
2022-08-26T08:45:49.672Z,962.79
2022-08-26T08:46:53.498Z,962.82
2022-08-26T08:47:48.078Z,962.82
2022-08-26T08:48:48.079Z,962.79
2022-08-26T08:49:48.107Z,962.83
2022-08-26T08:51:02.680Z,962.78
2022-08-26T08:51:48.713Z,962.81
2022-08-26T08:52:48.743Z,962.79
2022-08-26T08:53:48.729Z,962.76
2022-08-26T08:54:47.814Z,962.76
2022-08-26T08:55:48.357Z,962.79
2022-08-26T08:56:55.397Z,962.81
2022-08-26T08:57:53.663Z,962.81
2022-08-26T08:58:52.973Z,962.84
2022-08-26T08:59:47.383Z,962.87
2022-08-26T09:00:48.059Z,962.91
2022-08-26T09:01:40.060Z,962.92
2022-08-26T09:02:39.843Z,962.92
2022-08-26T09:03:39.830Z,962.89
2022-08-26T09:04:39.740Z,962.88
2022-08-26T09:05:39.845Z,962.89
2022-08-26T09:06:39.622Z,962.90
2022-08-26T09:07:39.864Z,962.87
2022-08-26T09:08:39.561Z,962.91
2022-08-26T09:09:39.675Z,962.97
2022-08-26T09:10:39.728Z,962.91
2022-08-26T09:11:39.457Z,962.90
2022-08-26T09:12:39.595Z,962.90
2022-08-26T09:13:39.702Z,962.89
2022-08-26T09:14:39.408Z,962.88
2022-08-26T09:15:47.596Z,962.83
2022-08-26T09:16:39.557Z,962.87
2022-08-26T09:17:39.526Z,962.88
2022-08-26T09:18:39.230Z,962.92
2022-08-26T09:19:39.226Z,962.98
2022-08-26T09:20:39.445Z,962.95
2022-08-26T09:21:39.189Z,962.98
2022-08-26T09:22:39.299Z,963.00
2022-08-26T09:23:39.220Z,962.99
2022-08-26T09:24:42.073Z,962.94
2022-08-26T09:25:39.341Z,962.93
2022-08-26T09:26:39.306Z,962.92
2022-08-26T09:27:38.941Z,962.93
2022-08-26T09:28:38.924Z,962.90
2022-08-26T09:29:38.886Z,962.91
2022-08-26T09:30:39.247Z,962.94
2022-08-26T09:31:38.846Z,962.87
2022-08-26T09:32:38.926Z,962.91
2022-08-26T09:33:38.764Z,962.90
2022-08-26T09:34:38.740Z,962.87
2022-08-26T09:35:38.747Z,962.87
2022-08-26T09:36:41.379Z,962.85
2022-08-26T09:37:38.695Z,962.87
2022-08-26T09:38:38.788Z,962.83
2022-08-26T09:39:38.596Z,962.84
2022-08-26T09:40:38.617Z,962.86
2022-08-26T09:41:38.793Z,962.88
2022-08-26T09:42:38.521Z,962.91
2022-08-26T09:43:38.589Z,962.90
2022-08-26T09:44:38.443Z,962.85
2022-08-26T09:45:38.655Z,962.84
2022-08-26T09:47:38.625Z,962.84
2022-08-26T09:48:41.056Z,962.85
2022-08-26T09:49:38.428Z,962.84
2022-08-26T09:50:38.273Z,962.81
2022-08-26T09:51:38.243Z,962.79
2022-08-26T09:52:38.235Z,962.76
2022-08-26T09:53:38.458Z,962.68
2022-08-26T09:54:38.149Z,962.69
2022-08-26T09:55:38.295Z,962.69
2022-08-26T09:56:38.110Z,962.70
2022-08-26T09:57:38.059Z,962.69
2022-08-26T09:58:38.495Z,962.71
2022-08-26T09:59:38.005Z,962.67
2022-08-26T10:00:38.536Z,962.62
2022-08-26T10:01:38.094Z,962.65
2022-08-26T10:02:38.114Z,962.58
2022-08-26T10:03:37.887Z,962.63
2022-08-26T10:04:38.206Z,962.61
2022-08-26T10:05:37.844Z,962.64
2022-08-26T10:06:37.936Z,962.60
2022-08-26T10:07:37.773Z,962.58
2022-08-26T10:08:37.773Z,962.54
2022-08-26T10:09:38.223Z,962.56
2022-08-26T10:10:37.984Z,962.56
2022-08-26T10:11:37.660Z,962.55
2022-08-26T10:12:37.790Z,962.52
2022-08-26T10:13:37.598Z,962.52
2022-08-26T10:14:38.067Z,962.49
2022-08-26T10:15:37.814Z,962.49
2022-08-26T10:16:37.533Z,962.48
2022-08-26T10:17:37.612Z,962.46
2022-08-26T10:18:37.441Z,962.47
2022-08-26T10:19:43.110Z,962.44
2022-08-26T10:20:37.387Z,962.42
2022-08-26T10:21:37.846Z,962.43
2022-08-26T10:22:37.376Z,962.41
2022-08-26T10:23:37.524Z,962.43
2022-08-26T10:24:37.273Z,962.44
2022-08-26T10:25:37.255Z,962.41
2022-08-26T10:26:37.216Z,962.39
2022-08-26T10:27:37.482Z,962.45
2022-08-26T10:28:37.179Z,962.41
2022-08-26T10:29:37.289Z,962.42
2022-08-26T10:30:37.100Z,962.45
2022-08-26T10:31:40.131Z,962.40
2022-08-26T10:32:37.339Z,962.45
2022-08-26T10:33:37.312Z,962.40
2022-08-26T10:34:37.168Z,962.39
2022-08-26T10:35:37.120Z,962.40
2022-08-26T10:36:52.398Z,962.42
2022-08-26T10:37:36.882Z,962.39
2022-08-26T10:38:37.721Z,962.37
2022-08-26T10:39:36.944Z,962.36
2022-08-26T10:40:36.904Z,962.37
2022-08-26T10:41:36.963Z,962.36
2022-08-26T10:42:37.519Z,962.38
2022-08-26T10:43:36.712Z,962.39
2022-08-26T10:44:36.674Z,962.40
2022-08-26T10:45:36.860Z,962.46
2022-08-26T10:46:36.841Z,962.45
2022-08-26T10:47:36.798Z,962.42
2022-08-26T10:48:36.574Z,962.44
2022-08-26T10:49:36.522Z,962.43
2022-08-26T10:50:37.290Z,962.43
2022-08-26T10:51:36.475Z,962.39
2022-08-26T10:52:36.834Z,962.40
2022-08-26T10:53:36.407Z,962.40
2022-08-26T10:54:36.388Z,962.43
2022-08-26T10:55:36.659Z,962.41
2022-08-26T10:56:36.316Z,962.38
2022-08-26T10:57:36.469Z,962.40
2022-08-26T10:58:36.517Z,962.37
2022-08-26T10:59:36.787Z,962.35
2022-08-26T11:00:36.224Z,962.37
2022-08-26T11:01:36.557Z,962.34
2022-08-26T11:02:36.152Z,962.34
2022-08-26T11:03:36.306Z,962.32
2022-08-26T11:04:36.132Z,962.33
2022-08-26T11:05:36.110Z,962.32
2022-08-26T11:06:37.060Z,962.27
2022-08-26T11:07:36.333Z,962.29
2022-08-26T11:08:35.997Z,962.30
2022-08-26T11:09:36.349Z,962.25
2022-08-26T11:10:35.945Z,962.23
2022-08-26T11:11:35.931Z,962.17
2022-08-26T11:12:35.889Z,962.17
2022-08-26T11:13:39.902Z,962.19
2022-08-26T11:14:53.659Z,962.16
2022-08-26T11:15:35.832Z,962.25
2022-08-26T11:16:36.141Z,962.24
2022-08-26T11:17:35.770Z,962.23
2022-08-26T11:18:36.001Z,962.21
2022-08-26T11:19:58.953Z,962.29
2022-08-26T11:20:35.688Z,962.24
2022-08-26T11:21:35.713Z,962.20
2022-08-26T11:22:36.266Z,962.20
2022-08-26T11:23:35.731Z,962.16
2022-08-26T11:24:35.580Z,962.11
2022-08-26T11:25:35.655Z,962.12
2022-08-26T11:26:55.707Z,962.08
2022-08-26T11:27:35.607Z,962.07
2022-08-26T11:28:35.568Z,962.06
2022-08-26T11:29:35.462Z,962.08
2022-08-26T11:30:35.492Z,962.05
2022-08-26T11:31:35.430Z,962.07
2022-08-26T11:32:35.785Z,962.02
2022-08-26T11:33:35.596Z,962.05
2022-08-26T11:34:35.340Z,962.02
2022-08-26T11:35:37.499Z,962.01
2022-08-26T11:36:35.292Z,962.01
2022-08-26T11:37:35.344Z,961.94
2022-08-26T11:38:35.238Z,961.98
2022-08-26T11:39:36.887Z,961.96
2022-08-26T11:40:35.279Z,961.97
2022-08-26T11:41:35.181Z,961.95
2022-08-26T11:42:35.269Z,961.91
2022-08-26T11:43:35.124Z,961.94
2022-08-26T11:44:35.131Z,961.97
2022-08-26T11:45:35.157Z,961.96
2022-08-26T11:46:36.129Z,962.00
2022-08-26T11:47:35.146Z,961.96
2022-08-26T11:48:36.133Z,961.89
2022-08-26T11:49:34.992Z,961.95
2022-08-26T11:50:34.966Z,961.91
2022-08-26T11:51:47.771Z,961.89
2022-08-26T11:52:34.946Z,961.90
2022-08-26T11:53:34.920Z,961.88
2022-08-26T11:54:35.683Z,961.90
2022-08-26T11:55:34.860Z,961.86
2022-08-26T11:56:34.829Z,961.86
2022-08-26T11:57:34.808Z,961.83
2022-08-26T11:58:34.815Z,961.86
2022-08-26T12:00:34.750Z,961.85
2022-08-26T12:01:34.728Z,961.86
2022-08-26T12:02:34.693Z,961.80
2022-08-26T12:03:34.759Z,961.80
2022-08-26T12:04:34.801Z,961.78
2022-08-26T12:05:34.638Z,961.79
2022-08-26T12:06:36.382Z,961.72
2022-08-26T12:07:34.588Z,961.71
2022-08-26T12:08:34.577Z,961.67
2022-08-26T12:09:34.549Z,961.70
2022-08-26T12:10:34.531Z,961.65
2022-08-26T12:11:34.498Z,961.63
2022-08-26T12:12:34.987Z,961.63
2022-08-26T12:13:34.454Z,961.63
2022-08-26T12:14:34.441Z,961.61
2022-08-26T12:15:34.428Z,961.52
2022-08-26T12:16:34.449Z,961.47
2022-08-26T12:17:34.365Z,961.41
2022-08-26T12:18:34.344Z,961.46
2022-08-26T12:19:34.322Z,961.46
2022-08-26T12:20:34.318Z,961.46
2022-08-26T12:21:34.928Z,961.45
2022-08-26T12:22:34.253Z,961.43
2022-08-26T12:23:34.228Z,961.41
2022-08-26T12:24:34.200Z,961.43
2022-08-26T12:25:36.257Z,961.43
2022-08-26T12:26:34.166Z,961.44
2022-08-26T12:27:34.331Z,961.49
2022-08-26T12:28:34.111Z,961.45
2022-08-26T12:29:34.070Z,961.46
2022-08-26T12:30:34.040Z,961.42
2022-08-26T12:31:34.094Z,961.45
2022-08-26T12:32:34.172Z,961.42
2022-08-26T12:33:33.965Z,961.42
2022-08-26T12:34:33.968Z,961.41